Time;durP1;ratioP1;P1;durP2;ratioP2;P2;SDS_P1;SDS_P2;PMS_P1;PMS_P2;Temp;Humidity;BMP_temperature;BMP_pressure;BME280_temperature;BME280_humidity;BME280_pressure;Samples;Min_cycle;Max_cycle;Signal;HPM_P1;HPM_P2
2023/08/30 00:01:16;;;;;;;15.40;13.97;;;;;;;;;;2611424;54;20427;-71
2023/08/30 00:03:42;;;;;;;13.73;12.53;;;;;;;;;;2610751;54;20423;-71
2023/08/30 00:06:08;;;;;;;14.30;13.00;;;;;;;;;;2611561;54;21024;-72
2023/08/30 00:08:35;;;;;;;14.27;12.97;;;;;;;;;;2611475;54;20455;-71
2023/08/30 00:11:02;;;;;;;16.43;15.03;;;;;;;;;;2611766;54;20415;-71
2023/08/30 00:13:29;;;;;;;13.77;12.47;;;;;;;;;;2611844;39;20807;-71
2023/08/30 00:15:56;;;;;;;16.10;14.43;;;;;;;;;;2611299;54;20395;-73
2023/08/30 00:18:22;;;;;;;14.63;11.97;;;;;;;;;;2612271;46;20439;-71
2023/08/30 00:20:48;;;;;;;16.50;15.00;;;;;;;;;;2611771;54;20407;-72
2023/08/30 00:23:14;;;;;;;17.80;15.87;;;;;;;;;;2611706;54;20384;-71
2023/08/30 00:25:40;;;;;;;15.70;14.20;;;;;;;;;;2612857;54;20523;-71
2023/08/30 00:28:06;;;;;;;15.97;14.30;;;;;;;;;;2611932;54;20438;-72
2023/08/30 00:30:33;;;;;;;17.63;15.77;;;;;;;;;;2612610;54;20519;-71
2023/08/30 00:32:59;;;;;;;20.77;16.43;;;;;;;;;;2612277;54;20404;-71
2023/08/30 00:35:25;;;;;;;18.90;15.47;;;;;;;;;;2611868;54;20387;-71
2023/08/30 00:37:51;;;;;;;18.93;16.90;;;;;;;;;;2612249;54;20411;-72
2023/08/30 00:40:17;;;;;;;20.70;17.07;;;;;;;;;;2611657;54;20412;-72
2023/08/30 00:42:43;;;;;;;19.03;17.20;;;;;;;;;;2611400;47;20395;-71
2023/08/30 00:45:09;;;;;;;21.13;17.27;;;;;;;;;;2612357;54;20407;-71
2023/08/30 00:47:37;;;;;;;28.57;18.37;;;;;;;;;;2611793;47;20421;-73
2023/08/30 00:50:03;;;;;;;19.77;17.27;;;;;;;;;;2612786;54;20395;-71
2023/08/30 00:52:29;;;;;;;28.70;18.10;;;;;;;;;;2612566;54;20427;-72
2023/08/30 00:54:55;;;;;;;29.17;18.93;;;;;;;;;;2610955;54;20406;-72
2023/08/30 00:57:21;;;;;;;22.90;17.53;;;;;;;;;;2612507;54;20415;-70
2023/08/30 00:59:47;;;;;;;18.00;15.97;;;;;;;;;;2611792;47;20415;-71
2023/08/30 01:02:13;;;;;;;18.73;16.80;;;;;;;;;;2612242;54;20407;-72
2023/08/30 01:04:40;;;;;;;22.50;17.57;;;;;;;;;;2611274;47;20415;-72
2023/08/30 01:07:06;;;;;;;21.87;17.87;;;;;;;;;;2611186;47;20439;-76
2023/08/30 01:09:32;;;;;;;22.37;18.03;;;;;;;;;;2612385;54;20998;-71
2023/08/30 01:12:05;;;;;;;22.27;17.60;;;;;;;;;;2612453;54;20519;-70
2023/08/30 01:14:47;;;;;;;18.83;16.40;;;;;;;;;;2611163;54;20423;-71
2023/08/30 01:17:15;;;;;;;22.17;19.30;;;;;;;;;;2612003;54;20395;-70
2023/08/30 01:19:47;;;;;;;20.97;18.77;;;;;;;;;;2611257;54;20977;-73
2023/08/30 01:22:32;;;;;;;25.77;17.70;;;;;;;;;;2612140;54;20519;-74
2023/08/30 01:25:06;;;;;;;25.70;19.83;;;;;;;;;;2612377;54;20427;-73
2023/08/30 01:27:36;;;;;;;26.27;18.10;;;;;;;;;;2612350;54;20411;-73
2023/08/30 01:30:03;;;;;;;24.20;19.70;;;;;;;;;;2610561;46;20432;-73
2023/08/30 01:32:30;;;;;;;27.10;21.43;;;;;;;;;;2611476;47;20424;-73
2023/08/30 01:34:57;;;;;;;26.83;20.30;;;;;;;;;;2612658;47;21455;-74
2023/08/30 01:37:24;;;;;;;29.77;20.60;;;;;;;;;;2613111;54;20391;-74
2023/08/30 01:39:50;;;;;;;33.83;22.50;;;;;;;;;;2612685;54;20423;-73
2023/08/30 01:42:21;;;;;;;27.47;22.60;;;;;;;;;;2612283;47;20419;-73
2023/08/30 01:44:47;;;;;;;26.70;20.70;;;;;;;;;;2612593;54;21071;-73
2023/08/30 01:47:16;;;;;;;26.63;20.93;;;;;;;;;;2613299;54;20404;-74
2023/08/30 01:49:43;;;;;;;23.43;20.40;;;;;;;;;;2613799;31;20910;-74
2023/08/30 01:52:09;;;;;;;26.27;21.97;;;;;;;;;;2611325;47;20395;-72
2023/08/30 01:54:36;;;;;;;26.90;22.57;;;;;;;;;;2612000;39;20885;-72
2023/08/30 01:57:02;;;;;;;26.10;22.17;;;;;;;;;;2612211;54;20468;-73
2023/08/30 01:59:29;;;;;;;28.10;20.97;;;;;;;;;;2611494;54;20405;-73
2023/08/30 02:01:56;;;;;;;25.33;22.60;;;;;;;;;;2613146;54;20422;-73
2023/08/30 02:04:22;;;;;;;25.53;21.13;;;;;;;;;;2612499;39;20791;-73
2023/08/30 02:07:07;;;;;;;30.40;22.30;;;;;;;;;;2613336;39;20839;-73
2023/08/30 02:09:33;;;;;;;27.90;21.50;;;;;;;;;;2611742;46;20474;-73
2023/08/30 02:12:01;;;;;;;25.77;21.83;;;;;;;;;;2612968;54;21540;-71
2023/08/30 02:14:27;;;;;;;24.70;20.00;;;;;;;;;;2612622;54;20479;-71
2023/08/30 02:16:56;;;;;;;26.27;20.97;;;;;;;;;;2613258;54;20403;-71
2023/08/30 02:19:22;;;;;;;23.47;20.97;;;;;;;;;;2612344;54;20499;-73
2023/08/30 02:21:49;;;;;;;24.93;19.90;;;;;;;;;;2612103;54;20418;-72
2023/08/30 02:24:15;;;;;;;27.43;22.40;;;;;;;;;;2612849;54;20431;-73
2023/08/30 02:26:43;;;;;;;26.40;20.43;;;;;;;;;;2612985;54;20435;-71
2023/08/30 02:29:09;;;;;;;29.17;23.33;;;;;;;;;;2613199;39;20865;-72
2023/08/30 02:31:35;;;;;;;31.80;22.60;;;;;;;;;;2611758;51;20390;-72
2023/08/30 02:34:02;;;;;;;28.67;22.63;;;;;;;;;;2613018;54;20424;-72
2023/08/30 02:36:28;;;;;;;25.80;21.63;;;;;;;;;;2612638;54;20457;-72
2023/08/30 02:38:54;;;;;;;28.17;22.37;;;;;;;;;;2612079;47;20423;-72
2023/08/30 02:41:20;;;;;;;31.43;24.53;;;;;;;;;;2612471;54;20439;-71
2023/08/30 02:43:46;;;;;;;25.93;22.43;;;;;;;;;;2612246;54;20439;-71
2023/08/30 02:46:12;;;;;;;28.43;22.03;;;;;;;;;;2612378;54;20416;-71
2023/08/30 02:48:38;;;;;;;30.83;24.07;;;;;;;;;;2612178;54;20412;-70
2023/08/30 02:51:04;;;;;;;28.60;21.67;;;;;;;;;;2611808;54;20527;-71
2023/08/30 02:53:30;;;;;;;26.93;22.57;;;;;;;;;;2612767;54;20420;-71
2023/08/30 02:55:57;;;;;;;28.80;20.60;;;;;;;;;;2613260;54;20430;-72
2023/08/30 02:58:23;;;;;;;28.70;24.13;;;;;;;;;;2612964;54;20407;-71
2023/08/30 03:00:49;;;;;;;25.90;22.70;;;;;;;;;;2612947;54;20427;-69
2023/08/30 03:03:15;;;;;;;33.67;24.87;;;;;;;;;;2613547;39;20898;-71
2023/08/30 03:05:41;;;;;;;31.60;23.87;;;;;;;;;;2612827;54;21270;-71
2023/08/30 03:08:07;;;;;;;35.63;24.00;;;;;;;;;;2612045;54;20575;-73
2023/08/30 03:10:33;;;;;;;31.03;25.90;;;;;;;;;;2612366;54;20387;-71
2023/08/30 03:12:59;;;;;;;29.57;24.03;;;;;;;;;;2612484;54;20387;-72
2023/08/30 03:15:25;;;;;;;34.40;24.10;;;;;;;;;;2612800;54;20466;-73
2023/08/30 03:17:51;;;;;;;33.97;26.10;;;;;;;;;;2613261;54;20442;-74
2023/08/30 03:20:19;;;;;;;37.30;24.93;;;;;;;;;;2614886;54;20425;-74
2023/08/30 03:22:45;;;;;;;32.67;23.83;;;;;;;;;;2615194;54;20395;-74
2023/08/30 03:25:17;;;;;;;37.83;25.77;;;;;;;;;;2613865;54;20428;-74
2023/08/30 03:27:44;;;;;;;30.53;23.97;;;;;;;;;;2614015;54;20431;-74
2023/08/30 03:30:11;;;;;;;32.10;24.63;;;;;;;;;;2614466;54;20498;-74
2023/08/30 03:32:37;;;;;;;38.77;29.77;;;;;;;;;;2614446;54;20411;-75
2023/08/30 03:35:04;;;;;;;40.50;27.77;;;;;;;;;;2613136;54;20442;-74
2023/08/30 03:37:31;;;;;;;36.70;25.50;;;;;;;;;;2613253;54;20470;-74
2023/08/30 03:39:58;;;;;;;34.73;27.37;;;;;;;;;;2613843;54;20427;-73
2023/08/30 03:42:24;;;;;;;36.07;28.00;;;;;;;;;;2613660;54;20410;-74
2023/08/30 03:44:50;;;;;;;41.30;27.63;;;;;;;;;;2614010;54;20415;-75
2023/08/30 03:47:16;;;;;;;36.20;27.50;;;;;;;;;;2614105;54;20431;-74
2023/08/30 03:49:43;;;;;;;34.07;25.07;;;;;;;;;;2613628;54;20398;-74
2023/08/30 03:52:09;;;;;;;34.30;26.07;;;;;;;;;;2613818;54;20435;-75
2023/08/30 03:54:37;;;;;;;41.20;28.53;;;;;;;;;;2613739;54;20395;-74
2023/08/30 03:57:03;;;;;;;38.27;28.67;;;;;;;;;;2613449;39;20872;-74
2023/08/30 03:59:29;;;;;;;41.23;29.50;;;;;;;;;;2614065;54;20411;-74
2023/08/30 04:01:55;;;;;;;37.53;27.50;;;;;;;;;;2613679;54;20418;-74
2023/08/30 04:04:21;;;;;;;43.10;29.97;;;;;;;;;;2613961;54;20409;-75
2023/08/30 04:06:47;;;;;;;40.40;29.47;;;;;;;;;;2612953;47;20395;-74
2023/08/30 04:09:13;;;;;;;42.80;30.67;;;;;;;;;;2614234;39;20949;-74
2023/08/30 04:11:39;;;;;;;47.10;31.30;;;;;;;;;;2613601;39;21113;-74
2023/08/30 04:14:05;;;;;;;46.97;32.13;;;;;;;;;;2613198;54;20447;-74
2023/08/30 04:16:32;;;;;;;43.90;30.60;;;;;;;;;;2613397;54;20989;-75
2023/08/30 04:18:58;;;;;;;42.20;31.07;;;;;;;;;;2613777;54;20408;-74
2023/08/30 04:21:24;;;;;;;39.97;29.50;;;;;;;;;;2612158;54;20436;-74
2023/08/30 04:23:52;;;;;;;40.40;31.40;;;;;;;;;;2614000;54;20412;-74
2023/08/30 04:26:18;;;;;;;44.43;30.63;;;;;;;;;;2613525;54;21091;-75
2023/08/30 04:28:45;;;;;;;65.70;36.20;;;;;;;;;;2613172;54;20434;-71
2023/08/30 04:31:11;;;;;;;45.90;31.80;;;;;;;;;;2611967;54;20407;-71
2023/08/30 04:33:37;;;;;;;49.53;30.47;;;;;;;;;;2612653;54;21056;-71
2023/08/30 04:36:04;;;;;;;47.03;31.13;;;;;;;;;;2612014;54;20405;-73
2023/08/30 04:38:30;;;;;;;56.13;31.17;;;;;;;;;;2612674;54;20400;-72
2023/08/30 04:40:59;;;;;;;41.93;29.60;;;;;;;;;;2612225;54;21357;-73
2023/08/30 04:43:25;;;;;;;41.33;29.90;;;;;;;;;;2611131;54;20430;-71
2023/08/30 04:45:51;;;;;;;41.90;30.00;;;;;;;;;;2610734;54;20427;-70
2023/08/30 04:48:17;;;;;;;53.00;34.17;;;;;;;;;;2611836;54;20419;-72
2023/08/30 04:50:43;;;;;;;54.27;34.47;;;;;;;;;;2610928;46;20411;-73
2023/08/30 04:53:09;;;;;;;56.07;35.00;;;;;;;;;;2610708;47;20949;-70
2023/08/30 04:55:36;;;;;;;50.07;34.47;;;;;;;;;;2611338;54;20438;-72
2023/08/30 04:58:02;;;;;;;53.23;34.67;;;;;;;;;;2611994;54;20444;-70
2023/08/30 05:00:28;;;;;;;53.63;34.23;;;;;;;;;;2610558;54;20545;-72
2023/08/30 05:02:54;;;;;;;60.57;35.63;;;;;;;;;;2612479;54;20427;-73
2023/08/30 05:05:20;;;;;;;55.40;34.77;;;;;;;;;;2613019;54;20841;-70
2023/08/30 05:07:46;;;;;;;61.00;35.70;;;;;;;;;;2612235;54;20447;-71
2023/08/30 05:10:13;;;;;;;54.33;36.17;;;;;;;;;;2607203;54;20964;-71
2023/08/30 05:12:39;;;;;;;52.87;35.33;;;;;;;;;;2613078;54;20419;-70
2023/08/30 05:15:05;;;;;;;56.50;37.73;;;;;;;;;;2613530;46;20421;-72
2023/08/30 05:17:32;;;;;;;62.80;36.57;;;;;;;;;;2613224;54;20434;-73
2023/08/30 05:19:59;;;;;;;48.57;36.67;;;;;;;;;;2612804;54;20853;-71
2023/08/30 05:22:25;;;;;;;60.97;37.50;;;;;;;;;;2612467;54;20401;-72
2023/08/30 05:24:51;;;;;;;59.80;38.07;;;;;;;;;;2612973;54;21066;-72
2023/08/30 05:27:18;;;;;;;61.27;39.97;;;;;;;;;;2612076;46;20458;-72
2023/08/30 05:29:44;;;;;;;56.43;38.60;;;;;;;;;;2613110;54;21159;-73
2023/08/30 05:32:10;;;;;;;58.40;39.70;;;;;;;;;;2612410;54;20407;-71
2023/08/30 05:34:36;;;;;;;64.63;40.33;;;;;;;;;;2613513;54;20998;-73
2023/08/30 05:37:02;;;;;;;62.07;41.17;;;;;;;;;;2613130;54;20431;-73
2023/08/30 05:39:28;;;;;;;66.80;42.37;;;;;;;;;;2612796;54;20427;-70
2023/08/30 05:41:55;;;;;;;64.40;41.27;;;;;;;;;;2613319;54;20486;-72
2023/08/30 05:44:21;;;;;;;69.20;44.03;;;;;;;;;;2612575;54;20409;-70
2023/08/30 05:46:47;;;;;;;61.23;42.90;;;;;;;;;;2612310;54;20538;-72
2023/08/30 05:49:13;;;;;;;71.50;43.50;;;;;;;;;;2612469;39;20849;-71
2023/08/30 05:51:39;;;;;;;62.33;42.03;;;;;;;;;;2612877;54;20937;-72
2023/08/30 05:54:05;;;;;;;70.00;43.67;;;;;;;;;;2613348;54;20435;-72
2023/08/30 05:56:31;;;;;;;67.07;42.77;;;;;;;;;;2608502;54;20424;-69
2023/08/30 05:58:57;;;;;;;63.93;41.77;;;;;;;;;;2610972;46;21017;-70
2023/08/30 06:01:24;;;;;;;63.73;43.47;;;;;;;;;;2612597;54;20431;-70
2023/08/30 06:03:51;;;;;;;64.70;43.00;;;;;;;;;;2610994;39;22031;-70
2023/08/30 06:06:17;;;;;;;59.20;39.70;;;;;;;;;;2610767;54;20446;-70
2023/08/30 06:08:43;;;;;;;57.30;41.20;;;;;;;;;;2612126;54;20438;-70
2023/08/30 06:11:09;;;;;;;55.03;37.30;;;;;;;;;;2612101;54;20447;-73
2023/08/30 06:13:35;;;;;;;55.27;36.97;;;;;;;;;;2611479;54;20415;-69
2023/08/30 06:16:02;;;;;;;61.13;38.43;;;;;;;;;;2611921;54;20458;-70
2023/08/30 06:18:31;;;;;;;50.10;33.37;;;;;;;;;;2610859;54;20423;-70
2023/08/30 06:20:57;;;;;;;43.37;32.70;;;;;;;;;;2611401;39;20876;-69
2023/08/30 06:23:24;;;;;;;49.67;34.53;;;;;;;;;;2611329;54;20411;-71
2023/08/30 06:26:00;;;;;;;48.07;33.90;;;;;;;;;;2611673;54;20427;-73
2023/08/30 06:28:26;;;;;;;47.50;33.53;;;;;;;;;;2611800;54;20415;-72
2023/08/30 06:30:52;;;;;;;43.73;33.33;;;;;;;;;;2611124;47;20454;-72
2023/08/30 06:33:18;;;;;;;42.77;32.30;;;;;;;;;;2610971;51;20965;-72
2023/08/30 06:35:44;;;;;;;36.40;30.67;;;;;;;;;;2611796;54;20473;-73
2023/08/30 06:38:10;;;;;;;36.43;30.33;;;;;;;;;;2611952;54;20427;-73
2023/08/30 06:40:37;;;;;;;35.63;29.37;;;;;;;;;;2611628;54;20423;-73
2023/08/30 06:43:03;;;;;;;35.53;29.60;;;;;;;;;;2612751;54;20446;-73
2023/08/30 06:45:29;;;;;;;33.90;29.50;;;;;;;;;;2612581;54;20412;-73
2023/08/30 06:47:55;;;;;;;32.90;28.10;;;;;;;;;;2611356;54;20997;-72
2023/08/30 06:50:21;;;;;;;31.53;28.13;;;;;;;;;;2612009;46;20432;-71
2023/08/30 06:52:47;;;;;;;36.00;28.80;;;;;;;;;;2613147;39;20787;-71
2023/08/30 06:55:14;;;;;;;32.00;27.33;;;;;;;;;;2612877;54;20431;-71
2023/08/30 06:57:40;;;;;;;30.77;26.53;;;;;;;;;;2612759;54;20411;-71
2023/08/30 07:00:09;;;;;;;29.60;26.60;;;;;;;;;;2612296;54;20415;-71
2023/08/30 07:02:38;;;;;;;28.23;25.33;;;;;;;;;;2612288;54;20396;-70
2023/08/30 07:05:05;;;;;;;28.47;25.47;;;;;;;;;;2612815;54;20388;-72
2023/08/30 07:07:31;;;;;;;26.70;23.97;;;;;;;;;;2613159;54;20997;-69
2023/08/30 07:09:57;;;;;;;27.63;25.17;;;;;;;;;;2612134;54;20446;-70
2023/08/30 07:12:23;;;;;;;26.67;24.17;;;;;;;;;;2611704;47;20419;-72
2023/08/30 07:14:49;;;;;;;26.30;23.90;;;;;;;;;;2612014;54;20392;-70
2023/08/30 07:17:15;;;;;;;25.50;23.10;;;;;;;;;;2610839;54;20431;-71
2023/08/30 07:19:41;;;;;;;25.30;22.90;;;;;;;;;;2610510;46;20446;-71
2023/08/30 07:22:07;;;;;;;26.77;23.93;;;;;;;;;;2611448;54;20527;-70
2023/08/30 07:24:33;;;;;;;25.03;22.90;;;;;;;;;;2612537;54;20427;-69
2023/08/30 07:27:00;;;;;;;24.93;23.00;;;;;;;;;;2612104;54;20419;-71
2023/08/30 07:29:26;;;;;;;24.83;22.53;;;;;;;;;;2610198;54;20420;-71
2023/08/30 07:31:53;;;;;;;24.87;22.83;;;;;;;;;;2612387;54;20419;-70
2023/08/30 07:34:19;;;;;;;24.00;21.60;;;;;;;;;;2611128;54;20412;-71
2023/08/30 07:36:45;;;;;;;24.57;22.07;;;;;;;;;;2611547;47;20423;-69
2023/08/30 07:39:11;;;;;;;24.93;22.97;;;;;;;;;;2611923;54;20424;-71
2023/08/30 07:41:38;;;;;;;22.27;20.37;;;;;;;;;;2611064;54;20451;-71
2023/08/30 07:44:04;;;;;;;21.77;19.97;;;;;;;;;;2611323;54;20429;-70
2023/08/30 07:46:30;;;;;;;22.60;20.80;;;;;;;;;;2612323;54;20395;-71
2023/08/30 07:48:56;;;;;;;23.53;21.57;;;;;;;;;;2611271;48;20411;-71
2023/08/30 07:51:22;;;;;;;22.37;20.23;;;;;;;;;;2609863;47;20543;-70
2023/08/30 07:53:48;;;;;;;21.47;19.83;;;;;;;;;;2610606;54;20946;-71
2023/08/30 07:56:14;;;;;;;20.50;18.80;;;;;;;;;;2611399;39;20833;-70
2023/08/30 07:58:43;;;;;;;18.90;17.50;;;;;;;;;;2611445;54;21289;-72
2023/08/30 08:01:09;;;;;;;9.73;9.23;;;;;;;;;;2611198;54;20439;-72
2023/08/30 08:03:35;;;;;;;12.57;11.70;;;;;;;;;;2612813;54;21240;-72
2023/08/30 08:06:01;;;;;;;10.07;9.50;;;;;;;;;;2612225;54;20940;-73
2023/08/30 08:08:27;;;;;;;8.17;7.87;;;;;;;;;;2612281;54;20455;-72
2023/08/30 08:10:53;;;;;;;10.73;10.07;;;;;;;;;;2610986;54;20491;-71
2023/08/30 08:13:19;;;;;;;10.33;9.70;;;;;;;;;;2611376;47;20450;-72
2023/08/30 08:15:45;;;;;;;12.70;11.80;;;;;;;;;;2611082;54;20403;-72
2023/08/30 08:18:11;;;;;;;9.70;9.07;;;;;;;;;;2611876;54;20430;-72
2023/08/30 08:20:39;;;;;;;9.53;8.93;;;;;;;;;;2609312;54;20418;-73
2023/08/30 08:23:05;;;;;;;11.70;11.10;;;;;;;;;;2611747;39;20791;-72
2023/08/30 08:25:31;;;;;;;9.83;9.43;;;;;;;;;;2610381;54;20527;-73
2023/08/30 08:27:57;;;;;;;11.60;11.00;;;;;;;;;;2609686;47;20458;-73
2023/08/30 08:30:23;;;;;;;16.70;15.60;;;;;;;;;;2610797;54;20400;-73
2023/08/30 08:32:49;;;;;;;14.43;13.33;;;;;;;;;;2610083;54;20989;-73
2023/08/30 08:35:15;;;;;;;10.80;10.00;;;;;;;;;;2609424;54;21274;-73
2023/08/30 08:37:41;;;;;;;26.70;14.70;;;;;;;;;;2611258;39;20408;-73
2023/08/30 08:40:08;;;;;;;10.43;9.93;;;;;;;;;;2610937;54;20543;-73
2023/08/30 08:42:35;;;;;;;10.37;9.87;;;;;;;;;;2611269;54;20400;-72
2023/08/30 08:45:02;;;;;;;10.47;9.93;;;;;;;;;;2611094;54;20431;-72
2023/08/30 08:47:30;;;;;;;9.40;9.00;;;;;;;;;;2610123;46;20450;-72
2023/08/30 08:49:56;;;;;;;9.93;9.53;;;;;;;;;;2612300;54;20524;-73
2023/08/30 08:52:22;;;;;;;13.20;12.40;;;;;;;;;;2612126;54;20416;-72
2023/08/30 08:54:49;;;;;;;14.90;14.00;;;;;;;;;;2610650;54;20431;-72
2023/08/30 08:57:15;;;;;;;16.33;14.77;;;;;;;;;;2611959;54;20449;-72
2023/08/30 08:59:41;;;;;;;12.03;11.20;;;;;;;;;;2610298;54;20404;-72
2023/08/30 09:02:08;;;;;;;13.63;12.70;;;;;;;;;;2610101;54;20516;-73
2023/08/30 09:04:34;;;;;;;14.90;13.50;;;;;;;;;;2612438;54;21317;-72
2023/08/30 09:07:00;;;;;;;15.17;13.97;;;;;;;;;;2611565;54;20395;-72
2023/08/30 09:09:27;;;;;;;14.17;13.27;;;;;;;;;;2612372;31;20942;-72
2023/08/30 09:11:53;;;;;;;14.87;13.70;;;;;;;;;;2611859;54;20419;-74
2023/08/30 09:14:19;;;;;;;15.27;13.97;;;;;;;;;;2611723;54;20388;-72
2023/08/30 09:16:55;;;;;;;15.20;13.80;;;;;;;;;;2612605;54;20424;-72
2023/08/30 09:19:24;;;;;;;14.20;13.30;;;;;;;;;;2610192;47;20548;-72
2023/08/30 09:21:51;;;;;;;15.30;14.27;;;;;;;;;;2608568;54;20427;-72
2023/08/30 09:24:17;;;;;;;13.50;12.60;;;;;;;;;;2608978;54;20460;-72
2023/08/30 09:26:47;;;;;;;14.47;13.47;;;;;;;;;;2608319;47;20419;-72
2023/08/30 09:29:13;;;;;;;14.70;13.90;;;;;;;;;;2609022;47;20422;-72
2023/08/30 09:31:42;;;;;;;15.03;14.00;;;;;;;;;;2608001;54;20451;-73
2023/08/30 09:34:10;;;;;;;18.53;16.93;;;;;;;;;;2609262;54;20437;-72
2023/08/30 09:36:40;;;;;;;14.67;13.67;;;;;;;;;;2607946;47;20553;-72
2023/08/30 09:39:06;;;;;;;17.23;15.90;;;;;;;;;;2609637;54;20511;-72
2023/08/30 09:41:33;;;;;;;13.70;12.60;;;;;;;;;;2611387;54;20396;-71
2023/08/30 09:43:59;;;;;;;14.37;13.17;;;;;;;;;;2609000;54;20507;-72
2023/08/30 09:46:25;;;;;;;14.10;13.20;;;;;;;;;;2607914;54;20415;-73
2023/08/30 09:48:53;;;;;;;14.57;13.37;;;;;;;;;;2609699;39;20465;-71
2023/08/30 09:51:20;;;;;;;13.70;12.50;;;;;;;;;;2612134;54;20498;-71
2023/08/30 09:53:49;;;;;;;14.47;13.57;;;;;;;;;;2611787;47;20450;-71
2023/08/30 09:56:15;;;;;;;14.40;13.30;;;;;;;;;;2613641;46;20442;-71
2023/08/30 09:58:43;;;;;;;14.77;13.43;;;;;;;;;;2611898;54;20450;-71
2023/08/30 10:01:11;;;;;;;13.50;12.50;;;;;;;;;;2612611;54;20431;-73
2023/08/30 10:03:37;;;;;;;13.07;12.20;;;;;;;;;;2613402;31;20837;-73
2023/08/30 10:06:05;;;;;;;10.13;9.43;;;;;;;;;;2613056;54;20427;-73
2023/08/30 10:08:32;;;;;;;10.07;9.27;;;;;;;;;;2613499;54;20451;-73
2023/08/30 10:11:01;;;;;;;9.10;8.20;;;;;;;;;;2613935;54;20399;-73
2023/08/30 10:13:27;;;;;;;13.47;12.47;;;;;;;;;;2611921;54;20434;-74
2023/08/30 10:15:58;;;;;;;9.67;8.80;;;;;;;;;;2610275;54;20419;-74
2023/08/30 10:18:26;;;;;;;25.50;8.53;;;;;;;;;;2609534;47;20989;-73
2023/08/30 10:20:54;;;;;;;10.73;8.10;;;;;;;;;;2609590;54;20412;-73
2023/08/30 10:23:21;;;;;;;9.80;7.33;;;;;;;;;;2611022;54;20567;-74
2023/08/30 10:25:48;;;;;;;11.70;8.53;;;;;;;;;;2612269;54;20434;-74
2023/08/30 10:28:15;;;;;;;9.17;8.20;;;;;;;;;;2612731;54;20543;-73
2023/08/30 10:30:42;;;;;;;9.50;7.93;;;;;;;;;;2613258;54;20521;-74
2023/08/30 10:33:16;;;;;;;9.83;8.83;;;;;;;;;;2609913;54;20470;-74
2023/08/30 10:35:49;;;;;;;13.33;8.70;;;;;;;;;;2610789;39;20807;-74
2023/08/30 10:38:25;;;;;;;13.87;10.20;;;;;;;;;;2611026;39;20927;-73
2023/08/30 10:40:51;;;;;;;13.73;11.00;;;;;;;;;;2612973;54;20381;-74
2023/08/30 10:43:29;;;;;;;14.93;11.27;;;;;;;;;;2611024;54;20950;-74
2023/08/30 10:46:02;;;;;;;13.10;11.80;;;;;;;;;;2610278;54;20956;-73
2023/08/30 10:48:35;;;;;;;14.57;10.90;;;;;;;;;;2610920;54;20937;-74
2023/08/30 10:51:04;;;;;;;13.37;10.93;;;;;;;;;;2611749;54;20991;-73
2023/08/30 10:53:30;;;;;;;11.80;8.97;;;;;;;;;;2610120;54;20400;-73
2023/08/30 10:56:03;;;;;;;13.47;12.00;;;;;;;;;;2607650;47;20507;-73
2023/08/30 10:58:39;;;;;;;13.90;12.13;;;;;;;;;;2610193;54;20431;-71
2023/08/30 11:01:06;;;;;;;11.00;8.90;;;;;;;;;;2610089;54;20391;-72
2023/08/30 11:03:32;;;;;;;15.23;13.00;;;;;;;;;;2611193;54;20388;-70
2023/08/30 11:06:01;;;;;;;13.77;11.57;;;;;;;;;;2610908;47;21092;-70
2023/08/30 11:08:28;;;;;;;19.50;13.27;;;;;;;;;;2612829;54;20470;-70
2023/08/30 11:11:04;;;;;;;14.83;11.87;;;;;;;;;;2612597;54;20427;-74
2023/08/30 11:13:30;;;;;;;15.33;13.13;;;;;;;;;;2611376;54;20416;-74
2023/08/30 11:16:00;;;;;;;17.40;11.57;;;;;;;;;;2609867;54;20396;-74
2023/08/30 11:18:27;;;;;;;14.17;11.70;;;;;;;;;;2609548;39;20534;-74
2023/08/30 11:21:02;;;;;;;14.17;12.67;;;;;;;;;;2608536;54;20416;-74
2023/08/30 11:23:29;;;;;;;13.80;11.23;;;;;;;;;;2609888;54;20399;-75
2023/08/30 11:25:55;;;;;;;14.93;13.17;;;;;;;;;;2609179;48;20422;-74
2023/08/30 11:28:24;;;;;;;12.63;11.30;;;;;;;;;;2609083;54;20424;-74
2023/08/30 11:30:53;;;;;;;13.20;11.53;;;;;;;;;;2610094;54;20467;-74
2023/08/30 11:33:19;;;;;;;13.40;12.00;;;;;;;;;;2610548;54;23290;-75
2023/08/30 11:35:46;;;;;;;11.60;10.07;;;;;;;;;;2610099;54;20419;-73
2023/08/30 11:38:13;;;;;;;15.10;13.60;;;;;;;;;;2609192;54;20414;-74
2023/08/30 11:40:40;;;;;;;15.40;11.63;;;;;;;;;;2609793;54;20952;-74
2023/08/30 11:43:07;;;;;;;13.10;10.50;;;;;;;;;;2610020;54;20427;-74
2023/08/30 11:45:34;;;;;;;19.70;12.73;;;;;;;;;;2609754;54;21073;-74
2023/08/30 11:48:01;;;;;;;13.87;12.40;;;;;;;;;;2608494;54;20414;-73
2023/08/30 11:50:27;;;;;;;15.37;12.03;;;;;;;;;;2610566;39;20815;-75
2023/08/30 11:52:54;;;;;;;12.43;10.30;;;;;;;;;;2609588;54;20419;-74
2023/08/30 11:55:21;;;;;;;9.10;8.10;;;;;;;;;;2608712;54;20438;-74
2023/08/30 11:57:52;;;;;;;8.87;6.27;;;;;;;;;;2610025;54;20982;-74
2023/08/30 12:00:19;;;;;;;6.60;5.43;;;;;;;;;;2609926;54;20403;-76
2023/08/30 12:02:47;;;;;;;4.60;4.03;;;;;;;;;;2612415;54;20434;-74
2023/08/30 12:05:13;;;;;;;6.50;5.63;;;;;;;;;;2612790;54;20412;-77
2023/08/30 12:07:43;;;;;;;7.13;5.67;;;;;;;;;;2613722;54;20406;-75
2023/08/30 12:10:09;;;;;;;5.93;5.33;;;;;;;;;;2611819;47;20431;-75
2023/08/30 12:12:38;;;;;;;5.30;4.80;;;;;;;;;;2613721;39;20837;-75
2023/08/30 12:15:11;;;;;;;6.73;5.37;;;;;;;;;;2611879;54;20443;-75
2023/08/30 12:17:37;;;;;;;6.23;4.70;;;;;;;;;;2610313;54;20458;-74
2023/08/30 12:20:03;;;;;;;5.63;4.13;;;;;;;;;;2609720;54;20483;-74
2023/08/30 12:22:39;;;;;;;5.30;4.20;;;;;;;;;;2610344;54;20446;-76
2023/08/30 12:25:16;;;;;;;6.80;5.50;;;;;;;;;;2609194;54;21146;-75
2023/08/30 12:27:42;;;;;;;7.70;5.90;;;;;;;;;;2609521;54;20419;-73
2023/08/30 12:30:09;;;;;;;5.47;4.67;;;;;;;;;;2609616;54;21264;-74
2023/08/30 12:32:35;;;;;;;6.90;5.40;;;;;;;;;;2609393;47;20458;-75
2023/08/30 12:35:01;;;;;;;6.60;4.80;;;;;;;;;;2608510;54;20423;-75
2023/08/30 12:37:27;;;;;;;6.20;5.10;;;;;;;;;;2609477;54;20411;-74
2023/08/30 12:39:53;;;;;;;6.43;5.83;;;;;;;;;;2609579;54;20438;-75
2023/08/30 12:42:19;;;;;;;8.20;6.03;;;;;;;;;;2609710;54;20403;-74
2023/08/30 12:44:46;;;;;;;6.90;6.20;;;;;;;;;;2610059;54;20424;-75
2023/08/30 12:47:14;;;;;;;6.80;5.80;;;;;;;;;;2612497;39;20996;-75
2023/08/30 12:49:40;;;;;;;6.97;6.20;;;;;;;;;;2612344;54;20435;-75
2023/08/30 12:52:07;;;;;;;8.07;6.03;;;;;;;;;;2611835;54;20415;-75
2023/08/30 12:54:33;;;;;;;7.47;6.60;;;;;;;;;;2612047;54;20407;-77
2023/08/30 12:56:59;;;;;;;7.40;5.70;;;;;;;;;;2612774;54;20436;-75
2023/08/30 12:59:25;;;;;;;7.90;6.40;;;;;;;;;;2612692;54;20419;-76
2023/08/30 13:01:51;;;;;;;8.70;6.67;;;;;;;;;;2611709;54;21238;-76
2023/08/30 13:04:17;;;;;;;8.90;6.53;;;;;;;;;;2611890;54;21001;-75
2023/08/30 13:06:43;;;;;;;6.73;6.03;;;;;;;;;;2612698;54;20974;-75
2023/08/30 13:09:09;;;;;;;7.30;6.23;;;;;;;;;;2609068;54;20498;-75
2023/08/30 13:11:35;;;;;;;8.37;6.73;;;;;;;;;;2609857;39;20833;-76
2023/08/30 13:14:01;;;;;;;7.80;6.90;;;;;;;;;;2611088;54;20435;-76
2023/08/30 13:16:28;;;;;;;8.60;6.30;;;;;;;;;;2611980;54;20415;-76
2023/08/30 13:18:54;;;;;;;10.73;5.93;;;;;;;;;;2612185;54;20428;-74
2023/08/30 13:21:20;;;;;;;6.20;5.37;;;;;;;;;;2612939;54;20458;-76
2023/08/30 13:23:46;;;;;;;7.80;6.17;;;;;;;;;;2612422;54;21131;-75
2023/08/30 13:26:12;;;;;;;7.03;6.33;;;;;;;;;;2612614;54;20527;-74
2023/08/30 13:28:38;;;;;;;7.57;6.77;;;;;;;;;;2610893;54;20964;-73
2023/08/30 13:31:07;;;;;;;9.60;7.33;;;;;;;;;;2611173;54;20423;-74
2023/08/30 13:33:33;;;;;;;7.80;7.00;;;;;;;;;;2608887;47;20423;-75
2023/08/30 13:36:02;;;;;;;7.47;6.63;;;;;;;;;;2610176;54;20406;-75
2023/08/30 13:38:28;;;;;;;6.13;4.17;;;;;;;;;;2610201;54;20420;-74
2023/08/30 13:41:04;;;;;;;8.20;7.10;;;;;;;;;;2610129;54;20478;-74
2023/08/30 13:43:31;;;;;;;8.40;6.10;;;;;;;;;;2609603;39;21389;-73
2023/08/30 13:46:01;;;;;;;11.63;6.73;;;;;;;;;;2609755;54;20419;-73
2023/08/30 13:48:27;;;;;;;10.57;7.03;;;;;;;;;;2609260;54;20407;-74
2023/08/30 13:50:53;;;;;;;9.50;7.10;;;;;;;;;;2609462;54;20973;-74
2023/08/30 13:53:19;;;;;;;9.50;5.33;;;;;;;;;;2609708;54;20515;-73
2023/08/30 13:55:48;;;;;;;7.90;6.97;;;;;;;;;;2609538;54;21293;-73
2023/08/30 13:58:15;;;;;;;6.77;5.33;;;;;;;;;;2609813;54;20400;-73
2023/08/30 14:00:41;;;;;;;8.07;6.60;;;;;;;;;;2608919;54;20423;-73
2023/08/30 14:03:10;;;;;;;8.77;6.50;;;;;;;;;;2609661;39;20482;-73
2023/08/30 14:05:40;;;;;;;7.13;6.43;;;;;;;;;;2610363;54;20396;-73
2023/08/30 14:08:06;;;;;;;10.00;6.40;;;;;;;;;;2609548;54;20407;-74
2023/08/30 14:10:32;;;;;;;7.70;6.33;;;;;;;;;;2610398;54;20419;-74
2023/08/30 14:12:58;;;;;;;7.03;5.90;;;;;;;;;;2608994;39;21117;-73
2023/08/30 14:15:24;;;;;;;6.90;5.77;;;;;;;;;;2609802;54;20485;-73
2023/08/30 14:17:50;;;;;;;11.23;5.10;;;;;;;;;;2609726;54;20459;-74
2023/08/30 14:20:16;;;;;;;9.57;5.80;;;;;;;;;;2608937;54;20427;-73
2023/08/30 14:22:42;;;;;;;11.60;6.23;;;;;;;;;;2610369;54;20466;-73